KBML/BML METAR and TAF weather

Enter ICAO airport designator
Station Type Date Time Source
KBML METAR 2019/12/11 16:52 UTC NOAA

KBML 111652Z AUTO 00000KT 10SM CLR M04/M13 A3012 RMK AO2 SLP217 T10441128


Station Type Date Time Source
KBML Decoded METAR 2019/12/11 16:52 UTC NOAA

BERLIN MUNICIPAL AIRPORT, NH, United States (KBML) 44-35N 71-11W 345M
Dec 11, 2019 - 11:52 AM EST / 2019.12.11 1652 UTC
Wind: Calm:0
Visibility: 10 mile(s):0
Sky conditions: clear
Temperature: 24.1 F (-4.4 C)
Dew Point: 9.0 F (-12.8 C)
Relative Humidity: 51%
Pressure (altimeter): 30.12 in. Hg (1019 hPa)
ob: KBML 111652Z AUTO 00000KT 10SM CLR M04/M13 A3012 RMK AO2 SLP217 T10441128
cycle: 17

Station Type Date Time Source
KBML TAF UTC NOAA

Error!

Example: see airport list